Flugplatz Ahrenlohe

Für EDHO sind keine METAR/TAF Berichte vorhanden.
Es werden die Flugwettermeldungen vom Flugplatz Hamburg in 18 km Entfernung angezeigt.

Bericht für EDDH

vom 14.08. um 07:50 UTC

Wind 3 kt aus 40°

Sichtweite 10 km oder mehr

gute Sicht, keine Wolken < 5000 ft, keine CB, keine Wettererscheinungen (CAVOK)

Temperatur 23.0°C

Taupunkt 15.0°C

Luftfeuchtigkeit 61%

Luftdruck 1013 hPa

keine wesentliche Wetteränderung innerhalb den nächsten 2 Stunden zu erwarten

EDDH 140750Z 04003KT 340V090 CAVOK 23/15 Q1013 NOSIG

Prognose für EDDH

vom 14.08. um 05:00 UTC

Zwischen 06:00 UTC und 14:00 UTC

Wind 5 kt aus 70°

Sichtweite 10 km oder mehr

keine signifikanten Wettererscheinungen

keine Wolken


Zwischen 14:00 und 16:00 UTC übergehend zu

Wind 10 kt aus 60°

Sichtweite 10 km oder mehr

keine signifikanten Wettererscheinungen

keine Wolken


Zwischen 14:00 UTC und 19:00 UTC zeitweise

gering bewölkt in 6000 ft


Zwischen 18:00 und 20:00 UTC übergehend zu

Wind 5 kt aus 30°

Sichtweite 10 km oder mehr

keine signifikanten Wettererscheinungen

keine Wolken


Am 15.08. zwischen 02:00 UTC und 05:00 UTC zeitweise mit einer Wahrscheinlichkeit von 30%

Sichtweite 2000 m

Nebelschwaden

TAF EDDH 140500Z 1406/1512 07005KT CAVOK BECMG 1414/1416 06010KT TEMPO 1414/1419 FEW060CB BECMG 1418/1420 03005KT PROB30 TEMPO 1502/1505 2000 BCFG
Impressum